createdAt,value
2022-09-26T00:01:26.243Z,11.37
2022-09-26T00:03:56.325Z,12.27
2022-09-26T00:06:24.737Z,13.40
2022-09-26T00:08:53.395Z,10.80
2022-09-26T00:11:22.896Z,14.97
2022-09-26T00:13:54.003Z,14.10
2022-09-26T00:16:23.186Z,14.77
2022-09-26T00:18:53.570Z,11.97
2022-09-26T00:21:22.511Z,13.77
2022-09-26T00:23:51.142Z,16.50
2022-09-26T00:26:20.737Z,15.20
2022-09-26T00:28:49.798Z,15.90
2022-09-26T00:31:20.467Z,13.87
2022-09-26T00:33:49.306Z,13.70
2022-09-26T00:36:19.065Z,13.17
2022-09-26T00:38:48.136Z,13.20
2022-09-26T00:41:17.378Z,12.40
2022-09-26T00:43:46.906Z,14.47
2022-09-26T00:46:25.019Z,12.07
2022-09-26T00:48:58.345Z,14.37
2022-09-26T00:51:28.152Z,13.17
2022-09-26T00:53:56.942Z,14.20
2022-09-26T00:56:27.270Z,13.37
2022-09-26T00:58:56.848Z,13.60
2022-09-26T01:01:25.417Z,15.37
2022-09-26T01:03:54.486Z,14.30
2022-09-26T01:06:24.102Z,12.53
2022-09-26T01:08:55.412Z,13.77
2022-09-26T01:11:24.264Z,14.60
2022-09-26T01:13:53.542Z,14.40
2022-09-26T01:16:22.035Z,14.73
2022-09-26T01:18:51.454Z,14.80
2022-09-26T01:21:29.175Z,15.23
2022-09-26T01:24:16.416Z,16.80
2022-09-26T01:27:05.996Z,14.13
2022-09-26T01:29:49.451Z,14.00
2022-09-26T01:32:46.292Z,15.57
2022-09-26T01:35:19.016Z,13.13
2022-09-26T01:37:50.494Z,12.93
2022-09-26T01:40:24.223Z,12.80
2022-09-26T01:43:01.593Z,13.80
2022-09-26T01:45:35.534Z,12.70
2022-09-26T01:48:07.806Z,13.57
2022-09-26T01:50:40.137Z,15.37
2022-09-26T01:53:12.027Z,16.43
2022-09-26T01:55:42.199Z,15.87
2022-09-26T01:58:14.145Z,13.57
2022-09-26T02:00:44.341Z,13.50
2022-09-26T02:03:17.357Z,13.77
2022-09-26T02:05:47.644Z,14.33
2022-09-26T02:08:18.119Z,14.03
2022-09-26T02:10:49.099Z,17.17
2022-09-26T02:13:19.568Z,14.97
2022-09-26T02:15:49.431Z,14.10
2022-09-26T02:18:21.994Z,17.03
2022-09-26T02:20:53.254Z,17.93
2022-09-26T02:23:21.917Z,15.87
2022-09-26T02:25:51.001Z,14.33
2022-09-26T02:28:19.415Z,15.10
2022-09-26T02:30:49.727Z,17.03
2022-09-26T02:33:19.977Z,17.27
2022-09-26T02:35:55.628Z,16.47
2022-09-26T02:38:27.202Z,18.23
2022-09-26T02:41:08.487Z,16.17
2022-09-26T02:43:56.211Z,14.37
2022-09-26T02:46:40.849Z,16.40
2022-09-26T02:49:17.237Z,14.73
2022-09-26T02:51:54.355Z,15.10
2022-09-26T02:54:25.605Z,13.63
2022-09-26T02:57:09.058Z,16.27
2022-09-26T02:59:43.465Z,16.40
2022-09-26T03:02:15.728Z,18.00
2022-09-26T03:04:52.221Z,15.20
2022-09-26T03:07:22.429Z,17.03
2022-09-26T03:09:52.775Z,19.33
2022-09-26T03:12:22.249Z,15.70
2022-09-26T03:14:54.141Z,16.17
2022-09-26T03:17:25.498Z,15.93
2022-09-26T03:19:57.868Z,18.00
2022-09-26T03:22:26.478Z,16.30
2022-09-26T03:24:55.139Z,16.67
2022-09-26T03:27:24.097Z,14.63
2022-09-26T03:29:53.339Z,17.60
2022-09-26T03:32:25.624Z,17.50
2022-09-26T03:34:56.297Z,16.93
2022-09-26T03:37:25.328Z,15.87
2022-09-26T03:39:53.820Z,16.10
2022-09-26T03:42:36.953Z,14.97
2022-09-26T03:45:06.713Z,16.13
2022-09-26T03:47:57.179Z,15.17
2022-09-26T03:50:27.785Z,14.37
2022-09-26T03:52:56.337Z,14.20
2022-09-26T03:55:24.803Z,14.03
2022-09-26T03:57:55.287Z,13.13
2022-09-26T04:00:31.311Z,14.70
2022-09-26T04:03:03.160Z,14.20
2022-09-26T04:05:41.265Z,13.17
2022-09-26T04:08:10.319Z,11.33
2022-09-26T04:10:40.105Z,10.07
2022-09-26T04:13:09.613Z,10.60
2022-09-26T04:15:38.612Z,10.83
2022-09-26T04:18:12.865Z,12.13
2022-09-26T04:20:43.146Z,11.17
2022-09-26T04:23:11.906Z,10.23
2022-09-26T04:25:40.279Z,10.53
2022-09-26T04:28:09.389Z,10.47
2022-09-26T04:30:40.060Z,8.77
2022-09-26T04:33:08.738Z,10.63
2022-09-26T04:35:37.092Z,9.13
2022-09-26T04:38:07.016Z,10.63
2022-09-26T04:40:39.486Z,9.20
2022-09-26T04:43:11.825Z,10.00
2022-09-26T04:45:42.364Z,10.67
2022-09-26T04:48:11.246Z,10.33
2022-09-26T04:50:46.831Z,10.00
2022-09-26T04:53:19.350Z,11.67
2022-09-26T04:56:00.778Z,9.73
2022-09-26T04:58:31.693Z,10.77
2022-09-26T05:01:03.604Z,10.10
2022-09-26T05:03:44.285Z,11.00
2022-09-26T05:06:17.785Z,11.10
2022-09-26T05:08:48.507Z,12.40
2022-09-26T05:11:21.954Z,10.77
2022-09-26T05:13:53.639Z,10.50
2022-09-26T05:16:24.013Z,10.10
2022-09-26T05:18:53.688Z,10.77
2022-09-26T05:21:22.172Z,10.67
2022-09-26T05:24:09.761Z,12.23
2022-09-26T05:26:42.265Z,11.50
2022-09-26T05:29:12.117Z,11.90
2022-09-26T05:32:04.272Z,12.50
2022-09-26T05:34:37.375Z,11.93
2022-09-26T05:37:07.215Z,10.20
2022-09-26T05:39:54.665Z,9.80
2022-09-26T05:42:23.299Z,11.63
2022-09-26T05:44:53.521Z,11.07
2022-09-26T05:47:23.478Z,10.07
2022-09-26T05:49:51.994Z,11.77
2022-09-26T05:52:23.081Z,11.90
2022-09-26T05:54:54.986Z,11.53
2022-09-26T05:57:41.655Z,10.70
2022-09-26T06:00:10.538Z,10.50
2022-09-26T06:02:48.169Z,10.57
2022-09-26T06:05:24.652Z,10.17
2022-09-26T06:08:02.603Z,11.67
2022-09-26T06:10:38.861Z,11.20
2022-09-26T06:13:08.632Z,9.90
2022-09-26T06:15:44.271Z,9.77
2022-09-26T06:18:12.679Z,11.63
2022-09-26T06:20:41.076Z,10.83
2022-09-26T06:23:09.469Z,11.33
2022-09-26T06:25:41.286Z,9.53
2022-09-26T06:28:09.676Z,8.93
2022-09-26T06:30:38.667Z,9.47
2022-09-26T06:33:32.591Z,9.47
2022-09-26T06:36:24.189Z,8.30
2022-09-26T06:38:55.389Z,9.80
2022-09-26T06:41:26.469Z,9.70
2022-09-26T06:43:57.928Z,8.23
2022-09-26T06:46:45.183Z,8.03
2022-09-26T06:49:15.381Z,8.50
2022-09-26T06:51:49.926Z,7.73
2022-09-26T06:54:19.364Z,8.43
2022-09-26T06:56:49.696Z,6.90
2022-09-26T06:59:18.262Z,6.63
2022-09-26T07:01:54.335Z,6.90
2022-09-26T07:04:41.285Z,7.60
2022-09-26T07:07:19.130Z,6.87
2022-09-26T07:09:47.601Z,7.03
2022-09-26T07:12:40.263Z,7.40
2022-09-26T07:15:09.704Z,8.30
2022-09-26T07:17:38.253Z,6.60
2022-09-26T07:20:25.081Z,7.73
2022-09-26T07:23:08.556Z,8.47
2022-09-26T07:25:39.600Z,7.43
2022-09-26T07:28:11.161Z,7.90
2022-09-26T07:30:46.043Z,6.93
2022-09-26T07:33:28.237Z,7.70
2022-09-26T07:36:01.952Z,8.30
2022-09-26T07:38:33.583Z,8.23
2022-09-26T07:41:02.161Z,7.20
2022-09-26T07:44:04.453Z,6.60
2022-09-26T07:46:39.989Z,6.77
2022-09-26T07:49:25.395Z,8.03
2022-09-26T07:52:07.663Z,6.40
2022-09-26T07:55:05.256Z,6.53
2022-09-26T07:57:50.117Z,6.10
2022-09-26T08:00:35.239Z,5.47
2022-09-26T08:03:28.636Z,6.97
2022-09-26T08:06:00.876Z,6.43
2022-09-26T08:08:30.502Z,7.10
2022-09-26T08:11:04.249Z,5.80
2022-09-26T08:13:48.319Z,5.47
2022-09-26T08:16:23.075Z,5.67
2022-09-26T08:18:54.711Z,4.60
2022-09-26T08:21:24.192Z,5.17
2022-09-26T08:23:55.764Z,5.47
2022-09-26T08:26:33.333Z,4.27
2022-09-26T08:29:09.639Z,4.83
2022-09-26T08:31:39.556Z,5.40
2022-09-26T08:34:08.475Z,4.40
2022-09-26T08:36:37.587Z,3.63
2022-09-26T08:39:16.915Z,3.83
2022-09-26T08:42:09.625Z,4.37
2022-09-26T08:45:27.467Z,3.60
2022-09-26T08:48:21.792Z,3.83
2022-09-26T08:51:13.099Z,3.47
2022-09-26T08:53:45.986Z,3.57
2022-09-26T08:56:19.042Z,3.60
2022-09-26T08:58:52.081Z,3.77
2022-09-26T09:01:26.888Z,3.20
2022-09-26T09:04:18.195Z,3.83
2022-09-26T09:06:47.612Z,2.90
2022-09-26T09:09:17.852Z,2.93
2022-09-26T09:12:11.065Z,3.20
2022-09-26T09:15:13.884Z,3.30
2022-09-26T09:18:03.386Z,3.20
2022-09-26T09:20:58.435Z,3.30
2022-09-26T09:23:52.986Z,3.67
2022-09-26T09:29:29.434Z,3.30
2022-09-26T09:32:18.136Z,3.40
2022-09-26T09:35:00.512Z,2.93
2022-09-26T09:37:55.609Z,3.60
2022-09-26T09:40:47.004Z,3.20
2022-09-26T09:43:16.972Z,3.60
2022-09-26T09:45:47.374Z,3.63
2022-09-26T09:48:17.080Z,2.90
2022-09-26T09:50:52.076Z,3.53
2022-09-26T09:53:29.587Z,2.93
2022-09-26T09:56:02.613Z,3.10
2022-09-26T09:58:41.012Z,3.13
2022-09-26T10:01:14.123Z,3.07
2022-09-26T10:03:47.833Z,2.70
2022-09-26T10:06:45.068Z,2.43
2022-09-26T10:09:38.417Z,2.97
2022-09-26T10:12:29.057Z,2.90
2022-09-26T10:15:20.706Z,2.90
2022-09-26T10:18:25.998Z,2.33
2022-09-26T10:21:08.930Z,2.50
2022-09-26T10:23:39.607Z,2.50
2022-09-26T10:26:15.404Z,2.30
2022-09-26T10:28:46.846Z,2.23
2022-09-26T10:31:23.982Z,2.00
2022-09-26T10:34:23.477Z,2.50
2022-09-26T10:36:51.941Z,2.17
2022-09-26T10:39:38.955Z,2.60
2022-09-26T10:42:15.643Z,2.83
2022-09-26T10:44:46.039Z,2.30
2022-09-26T10:47:25.599Z,2.50
2022-09-26T10:50:14.813Z,1.90
2022-09-26T10:53:06.336Z,2.00
2022-09-26T10:55:38.402Z,2.03
2022-09-26T10:58:13.765Z,2.00
2022-09-26T11:00:44.520Z,2.10
2022-09-26T11:03:21.489Z,1.87
2022-09-26T11:06:24.071Z,2.20
2022-09-26T11:08:56.307Z,2.07
2022-09-26T11:11:43.954Z,2.00
2022-09-26T11:14:28.007Z,1.90
2022-09-26T11:17:03.356Z,1.40
2022-09-26T11:19:39.073Z,1.33
2022-09-26T11:22:14.829Z,1.10
2022-09-26T11:24:47.382Z,1.40
2022-09-26T11:27:21.619Z,1.07
2022-09-26T11:29:55.816Z,1.40
2022-09-26T11:32:28.888Z,1.50
2022-09-26T11:35:17.535Z,1.30
2022-09-26T11:38:05.443Z,1.50
2022-09-26T11:40:41.702Z,1.47
2022-09-26T11:43:28.768Z,1.60
2022-09-26T11:46:15.522Z,1.50
2022-09-26T11:49:27.260Z,1.60
2022-09-26T11:52:01.519Z,1.60
2022-09-26T11:54:36.331Z,1.80
2022-09-26T11:57:12.657Z,1.80
2022-09-26T11:59:47.764Z,1.60
2022-09-26T12:02:32.068Z,1.57
2022-09-26T12:05:14.171Z,1.40
2022-09-26T12:07:46.416Z,1.20
2022-09-26T12:10:26.336Z,1.17
2022-09-26T12:13:03.360Z,1.10
2022-09-26T12:15:36.402Z,1.27
2022-09-26T12:18:13.858Z,1.27
2022-09-26T12:20:47.168Z,1.20
2022-09-26T12:23:22.633Z,1.20
2022-09-26T12:25:56.132Z,1.30
2022-09-26T12:28:30.761Z,1.37
2022-09-26T12:31:05.297Z,1.60
2022-09-26T12:33:53.453Z,1.50
2022-09-26T12:36:28.704Z,1.50
2022-09-26T12:39:04.361Z,1.70
2022-09-26T12:41:39.924Z,1.43
2022-09-26T12:44:15.661Z,1.73
2022-09-26T12:46:54.225Z,1.70
2022-09-26T12:49:38.866Z,1.77
2022-09-26T12:52:12.033Z,2.07
2022-09-26T12:54:50.566Z,1.80
2022-09-26T12:57:24.374Z,1.67
2022-09-26T12:59:58.953Z,1.40
2022-09-26T13:02:34.346Z,1.30
2022-09-26T13:05:09.294Z,1.40
2022-09-26T13:07:47.548Z,1.40
2022-09-26T13:10:23.188Z,1.73
2022-09-26T13:13:00.355Z,1.30
2022-09-26T13:15:32.481Z,1.60
2022-09-26T13:18:02.927Z,1.40
2022-09-26T13:20:36.009Z,1.40
2022-09-26T13:23:07.840Z,1.23
2022-09-26T13:25:39.256Z,1.40
2022-09-26T13:28:12.135Z,1.37
2022-09-26T13:30:42.562Z,1.30
2022-09-26T13:33:15.153Z,1.20
2022-09-26T13:35:47.848Z,1.30
2022-09-26T13:38:20.195Z,1.47
2022-09-26T13:40:52.266Z,1.20
2022-09-26T13:43:29.130Z,1.20
2022-09-26T13:46:01.525Z,1.20
2022-09-26T13:48:41.352Z,1.40
2022-09-26T13:51:19.381Z,1.50
2022-09-26T13:53:53.595Z,1.33
2022-09-26T13:56:42.325Z,1.40
2022-09-26T13:59:26.126Z,1.40
2022-09-26T14:02:14.310Z,1.63
2022-09-26T14:04:43.590Z,1.43
2022-09-26T14:07:35.250Z,1.60
2022-09-26T14:10:24.763Z,1.40
2022-09-26T14:12:54.985Z,1.53
2022-09-26T14:15:25.169Z,1.20
2022-09-26T14:18:08.460Z,1.37
2022-09-26T14:20:47.416Z,1.20
2022-09-26T14:23:30.933Z,1.27
2022-09-26T14:26:06.220Z,1.37
2022-09-26T14:28:36.008Z,1.70
2022-09-26T14:31:34.771Z,1.50
2022-09-26T14:34:08.119Z,1.50
2022-09-26T14:36:37.055Z,1.50
2022-09-26T14:39:06.047Z,1.63
2022-09-26T14:41:36.607Z,1.73
2022-09-26T14:44:06.141Z,1.43
2022-09-26T14:46:36.087Z,1.47
2022-09-26T14:49:05.973Z,1.80
2022-09-26T14:51:35.528Z,1.60
2022-09-26T14:54:05.416Z,1.60
2022-09-26T14:56:46.701Z,1.70
2022-09-26T14:59:33.932Z,1.57
2022-09-26T15:02:19.485Z,1.40
2022-09-26T15:04:49.098Z,1.80
2022-09-26T15:07:19.725Z,1.50
2022-09-26T15:09:51.200Z,1.70
2022-09-26T15:12:24.160Z,1.63
2022-09-26T15:14:55.327Z,1.50
2022-09-26T15:17:26.243Z,1.60
2022-09-26T15:19:56.668Z,1.50
2022-09-26T15:22:26.092Z,1.30
2022-09-26T15:24:54.870Z,1.50
2022-09-26T15:27:27.328Z,1.43
2022-09-26T15:29:57.980Z,1.63
2022-09-26T15:32:27.270Z,1.53
2022-09-26T15:34:56.136Z,1.37
2022-09-26T15:37:25.371Z,1.37
2022-09-26T15:39:53.832Z,1.43
2022-09-26T15:42:44.664Z,1.97
2022-09-26T15:45:27.497Z,1.87
2022-09-26T15:47:56.444Z,1.50
2022-09-26T15:50:27.318Z,1.43
2022-09-26T15:52:59.167Z,1.80
2022-09-26T15:55:29.462Z,1.60
2022-09-26T15:57:59.591Z,1.40
2022-09-26T16:00:31.993Z,1.50
2022-09-26T16:03:00.701Z,1.40
2022-09-26T16:05:29.546Z,1.57
2022-09-26T16:07:58.840Z,1.80
2022-09-26T16:10:29.654Z,1.30
2022-09-26T16:13:00.482Z,1.60
2022-09-26T16:15:31.209Z,1.70
2022-09-26T16:18:00.753Z,1.30
2022-09-26T16:20:30.234Z,1.47
2022-09-26T16:23:04.045Z,1.20
2022-09-26T16:25:35.229Z,2.07
2022-09-26T16:28:20.981Z,2.40
2022-09-26T16:31:00.835Z,2.20
2022-09-26T16:33:31.110Z,2.10
2022-09-26T16:36:04.653Z,1.90
2022-09-26T16:38:34.268Z,1.40
2022-09-26T16:41:07.892Z,1.40
2022-09-26T16:43:37.080Z,1.50
2022-09-26T16:46:09.055Z,1.87
2022-09-26T16:48:38.668Z,1.87
2022-09-26T16:51:14.658Z,1.70
2022-09-26T16:53:45.596Z,1.73
2022-09-26T16:56:15.245Z,1.43
2022-09-26T16:58:47.501Z,1.90
2022-09-26T17:01:34.916Z,1.43
2022-09-26T17:04:03.583Z,1.80
2022-09-26T17:06:32.153Z,1.63
2022-09-26T17:09:03.763Z,1.87
2022-09-26T17:11:35.275Z,1.40
2022-09-26T17:14:06.291Z,1.50
2022-09-26T17:16:36.106Z,1.70
2022-09-26T17:19:04.955Z,1.97
2022-09-26T17:21:33.365Z,1.90
2022-09-26T17:24:02.111Z,1.70
2022-09-26T17:26:34.894Z,1.80
2022-09-26T17:29:03.602Z,1.87
2022-09-26T17:31:34.629Z,2.00
2022-09-26T17:34:04.540Z,2.00
2022-09-26T17:36:32.926Z,1.90
2022-09-26T17:39:02.695Z,1.90
2022-09-26T17:41:34.371Z,1.70
2022-09-26T17:44:02.882Z,1.90
2022-09-26T17:46:31.628Z,1.90
2022-09-26T17:49:05.101Z,1.80
2022-09-26T17:51:36.137Z,1.67
2022-09-26T17:54:07.120Z,1.80
2022-09-26T17:56:35.568Z,1.83
2022-09-26T17:59:03.998Z,2.47
2022-09-26T18:01:34.393Z,2.03
2022-09-26T18:04:06.418Z,2.00
2022-09-26T18:06:36.939Z,2.20
2022-09-26T18:09:10.124Z,2.43
2022-09-26T18:11:38.791Z,2.70
2022-09-26T18:14:08.728Z,3.03
2022-09-26T18:16:37.126Z,3.03
2022-09-26T18:19:07.693Z,2.80
2022-09-26T18:21:38.730Z,2.90
2022-09-26T18:24:10.997Z,2.90
2022-09-26T18:26:44.534Z,2.90
2022-09-26T18:29:15.394Z,3.10
2022-09-26T18:31:45.685Z,3.03
2022-09-26T18:34:16.386Z,3.00
2022-09-26T18:36:46.554Z,3.10
2022-09-26T18:39:15.042Z,2.70
2022-09-26T18:41:45.091Z,2.73
2022-09-26T18:44:17.155Z,3.07
2022-09-26T18:46:47.069Z,2.80
2022-09-26T18:49:16.070Z,2.77
2022-09-26T18:51:46.822Z,3.40
2022-09-26T18:54:16.194Z,2.50
2022-09-26T18:57:02.561Z,2.30
2022-09-26T18:59:32.321Z,2.97
2022-09-26T19:02:02.583Z,2.70
2022-09-26T19:04:31.639Z,2.70
2022-09-26T19:07:02.818Z,2.90
2022-09-26T19:09:34.240Z,2.53
2022-09-26T19:12:02.779Z,2.60
2022-09-26T19:14:32.278Z,2.83
2022-09-26T19:17:01.171Z,2.73
2022-09-26T19:19:32.576Z,3.37
2022-09-26T19:22:07.968Z,3.50
2022-09-26T19:24:38.253Z,3.30
2022-09-26T19:27:07.898Z,3.53
2022-09-26T19:29:38.524Z,3.50
2022-09-26T19:32:07.769Z,3.63
2022-09-26T19:34:36.319Z,3.60
2022-09-26T19:37:07.525Z,3.40
2022-09-26T19:39:36.368Z,3.23
2022-09-26T19:42:04.860Z,3.20
2022-09-26T19:44:34.252Z,3.37
2022-09-26T19:47:03.842Z,3.27
2022-09-26T19:49:32.882Z,3.10
2022-09-26T19:52:02.481Z,3.27
2022-09-26T19:54:34.187Z,3.33
2022-09-26T19:57:03.422Z,3.53
2022-09-26T19:59:31.873Z,3.20
2022-09-26T20:02:00.434Z,3.13
2022-09-26T20:04:31.246Z,3.27
2022-09-26T20:07:02.332Z,3.10
2022-09-26T20:09:32.237Z,3.10
2022-09-26T20:12:03.714Z,3.20
2022-09-26T20:14:35.375Z,3.03
2022-09-26T20:17:05.097Z,3.20
2022-09-26T20:19:36.247Z,3.27
2022-09-26T20:22:05.974Z,3.17
2022-09-26T20:24:39.675Z,3.57
2022-09-26T20:27:09.166Z,3.47
2022-09-26T20:29:55.328Z,3.90
2022-09-26T20:32:23.809Z,3.37
2022-09-26T20:34:52.271Z,3.30
2022-09-26T20:37:23.488Z,3.40
2022-09-26T20:39:53.597Z,3.63
2022-09-26T20:42:27.953Z,3.77
2022-09-26T20:44:57.250Z,3.50
2022-09-26T20:47:25.619Z,3.13
2022-09-26T20:49:55.784Z,3.37
2022-09-26T20:52:25.362Z,3.20
2022-09-26T20:54:56.143Z,3.63
2022-09-26T20:57:24.940Z,3.90
2022-09-26T20:59:53.701Z,3.47
2022-09-26T21:02:27.944Z,3.40
2022-09-26T21:04:57.764Z,3.10
2022-09-26T21:07:26.379Z,3.80
2022-09-26T21:09:56.186Z,3.80
2022-09-26T21:12:24.601Z,3.23
2022-09-26T21:14:53.537Z,3.17
2022-09-26T21:17:25.183Z,3.30
2022-09-26T21:19:54.017Z,3.90
2022-09-26T21:22:40.896Z,3.20
2022-09-26T21:25:15.380Z,3.10
2022-09-26T21:27:43.875Z,2.87
2022-09-26T21:30:15.780Z,3.10
2022-09-26T21:32:49.280Z,3.30
2022-09-26T21:35:18.725Z,3.90
2022-09-26T21:37:48.260Z,3.87
2022-09-26T21:40:18.529Z,3.00
2022-09-26T21:42:49.911Z,2.80
2022-09-26T21:45:24.930Z,3.07
2022-09-26T21:47:56.036Z,2.87
2022-09-26T21:50:24.949Z,2.87
2022-09-26T21:52:56.322Z,2.60
2022-09-26T21:55:29.698Z,2.93
2022-09-26T21:58:00.563Z,2.57
2022-09-26T22:00:29.244Z,2.33
2022-09-26T22:02:59.757Z,2.20
2022-09-26T22:05:29.033Z,2.47
2022-09-26T22:07:58.521Z,2.30
2022-09-26T22:10:29.387Z,2.33
2022-09-26T22:12:57.847Z,2.70
2022-09-26T22:15:26.295Z,2.10
2022-09-26T22:17:55.028Z,2.30
2022-09-26T22:20:23.743Z,2.17
2022-09-26T22:22:52.129Z,2.07
2022-09-26T22:25:20.530Z,2.10
2022-09-26T22:27:50.268Z,2.30
2022-09-26T22:30:18.749Z,2.20
2022-09-26T22:32:47.126Z,2.23
2022-09-26T22:35:15.776Z,2.30
2022-09-26T22:37:44.200Z,2.10
2022-09-26T22:40:12.738Z,2.20
2022-09-26T22:42:41.173Z,1.80
2022-09-26T22:45:11.650Z,2.27
2022-09-26T22:47:40.043Z,2.33
2022-09-26T22:50:08.744Z,2.70
2022-09-26T22:52:37.149Z,2.07
2022-09-26T22:55:05.901Z,2.37
2022-09-26T22:57:34.285Z,2.60
2022-09-26T23:00:03.146Z,2.20
2022-09-26T23:02:32.950Z,2.23
2022-09-26T23:05:01.445Z,2.20
2022-09-26T23:07:30.196Z,1.90
2022-09-26T23:10:00.252Z,1.80
2022-09-26T23:12:28.656Z,1.67
2022-09-26T23:14:57.049Z,1.90
2022-09-26T23:17:25.532Z,1.73
2022-09-26T23:19:55.332Z,2.03
2022-09-26T23:22:23.706Z,1.90
2022-09-26T23:24:52.100Z,1.70
2022-09-26T23:27:21.471Z,1.57
2022-09-26T23:29:49.872Z,1.30
2022-09-26T23:32:18.285Z,1.47
2022-09-26T23:34:46.662Z,1.50
2022-09-26T23:37:16.433Z,1.50
2022-09-26T23:39:44.840Z,1.37
2022-09-26T23:42:13.230Z,1.47
2022-09-26T23:44:41.702Z,1.20
2022-09-26T23:47:10.088Z,1.20
2022-09-26T23:49:38.505Z,1.30
2022-09-26T23:52:06.928Z,1.40
2022-09-26T23:54:37.002Z,1.40
2022-09-26T23:57:05.417Z,1.40
2022-09-26T23:59:33.828Z,1.27
